• Join FlightAware (Why Join?)
  • Login
  • US Flag 
07:24PM EDT


 

Airport Tracker/Info


-or-


 

Live Flight TrackerFlight Track Log ✈ EVA17 ✈ 25-Apr-2012 ✈ KSFO - RCTP / TPE

Flight Track Log - Related Links

Times and Time Zones

All times are in EDT time to prevent confusion due to time zone crossing. See the EVA17 flight status page for this flight to view local times or setup timezone preferences in your user account.

Time Position Orientation Groundspeed Altitude Reporting Facility
EDT Latitude Longitude Course Direction KTS MPH feet Rate Location/Type
04:31AM 37.6500 -122.4500 310° West 196 226 2,000  Level Northern Cal TRACON
04:32AM 37.6833 -122.5000 313° West 210 242 3,500 1,200 Climbing Northern Cal TRACON
04:33AM 37.7333 -122.5667 328° Northwest 270 311 4,500 1,380 Climbing Northern Cal TRACON
04:34AM 37.8167 -122.6333 338° Northwest 329 379 6,400 1,500 Climbing Northern Cal TRACON
04:35AM 37.9167 -122.6833 332° Northwest 398 458 7,800 1,440 Climbing Northern Cal TRACON
04:51AM 39.8447 -124.0258 331° Northwest 522 601 30,900 1,320 Climbing Seattle Center
04:52AM 39.9708 -124.1153 331° Northwest 518 596 30,900  Level Seattle Center
04:53AM 40.0956 -124.2050 331° Northwest 512 589 31,000  Climbing Seattle Center
04:54AM 40.2217 -124.2950 331° Northwest 512 589 31,000  Level Seattle Center
04:55AM 40.3667 -124.4003 331° Northwest 507 583 31,000  Level Seattle Center
04:56AM 40.4919 -124.4925 331° Northwest 511 588 31,000  Level Seattle Center
04:57AM 40.6011 -124.5711 331° Northwest 515 593 31,000  Level Seattle Center
04:58AM 40.7281 -124.6642 331° Northwest 518 596 31,000  Level Seattle Center
04:59AM 40.8536 -124.7572 331° Northwest 518 596 31,000  Level Seattle Center
05:00AM 40.9800 -124.8500 331° Northwest 519 597 31,000  Level Seattle Center
05:01AM 41.1058 -124.9444 331° Northwest 520 598 31,000  Level Seattle Center
05:02AM 41.2314 -125.0378 331° Northwest 518 596 31,000  Level Seattle Center
05:03AM 41.3569 -125.1300 331° Northwest 517 595 31,000  Level Seattle Center
05:04AM 41.4831 -125.2244 330° Northwest 518 596 31,000  Level Seattle Center
05:05AM 41.6078 -125.3206 330° Northwest 518 596 31,000  Level Seattle Center
05:06AM 41.7303 -125.4153 331° Northwest 513 590 31,000  Level Seattle Center
05:07AM 41.8547 -125.5086 331° Northwest 512 589 31,000  Level Seattle Center
05:08AM 41.9792 -125.6031 330° Northwest 514 592 31,000  Level Seattle Center
05:09AM 42.1014 -125.6986 330° Northwest 511 588 31,000  Level Seattle Center
05:10AM 42.2253 -125.7933 330° Northwest 511 588 31,000  Level Seattle Center
05:11AM 42.3494 -125.8914 330° Northwest 515 593 31,000  Level Seattle Center
05:12AM 42.4739 -125.9889 330° Northwest 516 594 31,000  Level Seattle Center
05:13AM 42.5997 -126.0867 330° Northwest 519 597 31,000  Level Seattle Center
05:14AM 42.7250 -126.1850 334° Northwest 520 598 31,000  Level Seattle Center
05:15AM 42.8433 -126.2642 334° Northwest 521 600 31,000  Level Seattle Center
05:31AM 45.0167 -127.7500 333° Northwest 535 616 31,000  Level Oakland Oceanic (ODAPS)
05:49AM 47.3333 -129.5167 333° Northwest 550 633 31,000  Level Vancouver Center
05:51AM 47.6000 -129.7167 322° Northwest 550 633 31,000  Level Vancouver Center
05:52AM 47.7167 -129.8500 312° West 530 610 31,000  Level Vancouver Center
05:53AM 47.8167 -130.0167 323° Northwest 510 587 31,000  Level Vancouver Center
05:54AM 47.9333 -130.1500 307° West 510 587 31,000  Level Vancouver Center
05:55AM 48.0167 -130.3167 322° Northwest 510 587 31,000  Level Vancouver Center
05:56AM 48.1167 -130.4333 309° West 470 541 31,000  Level Vancouver Center
05:57AM 48.2167 -130.6167 317° Northwest 540 621 31,000  Level Vancouver Center
05:59AM 48.4333 -130.9167 310° West 510 587 31,000  Level Vancouver Center
06:00AM 48.5167 -131.0667 317° Northwest 530 610 31,000  Level Vancouver Center
06:01AM 48.6333 -131.2333 307° West 520 598 31,000  Level Vancouver Center
06:02AM 48.7167 -131.4000 323° Northwest 520 598 31,000  Level Vancouver Center
06:03AM 48.8333 -131.5333 310° West 520 598 31,000  Level Vancouver Center
06:04AM 48.9333 -131.7167 314° West 530 610 31,000  Level Vancouver Center
06:05AM 49.0167 -131.8500 312° West 520 598 31,000  Level Vancouver Center
06:25AM 50.9000 -135.2167 298° West 527 606 31,000  Level Oakland Oceanic (ODAPS)
06:26AM 50.9833 -135.4667 307° West 540 621 31,000  Level Vancouver Center
06:27AM 51.1167 -135.7500 305° West 520 598 31,000  Level Vancouver Center
06:28AM 51.1833 -135.9000 307° West 510 587 31,000  Level Vancouver Center
06:30AM 51.4000 -136.3667 305° West 520 598 31,000  Level Vancouver Center
06:33AM 51.6167 -136.8667 306° West 530 610 31,000  Level Vancouver Center
06:34AM 51.7000 -137.0500 308° West 530 610 31,000  Level Vancouver Center
06:36AM 51.8833 -137.4333 307° West 490 564 31,000  Level Vancouver Center
06:50AM 53.0000 -140.0000 300° West 513 590 31,000  Level Oakland Oceanic (ODAPS)
06:51AM 53.1333 -140.3833 301° West 514 592 31,000  Level Oakland Oceanic (ODAPS)
07:18AM 54.9500 -145.9833 296° West 502 578 31,000  Level Oakland Oceanic (ODAPS)
07:36AM 56.0000 -150.0000 295° West 485 558 31,000  Level Oakland Oceanic (ODAPS)
07:45AM 56.4500 -151.8333 292° West 482 555 31,000  Level Oakland Oceanic (ODAPS)
07:52AM 56.7833 -153.3667 291° West 480 552 31,000  Level Anchorage Center
07:53AM 56.8333 -153.6000 293° West 490 564 31,000  Level Anchorage Center
07:54AM 56.8833 -153.8167 292° West 460 529 31,000  Level Anchorage Center
07:55AM 56.9333 -154.0500 286° West 470 541 31,000  Level Anchorage Center
07:56AM 56.9667 -154.2667 292° West 470 541 31,000  Level Anchorage Center
07:57AM 57.0167 -154.5000 293° West 460 529 31,000  Level Anchorage Center
07:58AM 57.0667 -154.7167 293° West 460 529 31,000  Level Anchorage Center
07:59AM 57.1167 -154.9333 285° West 460 529 31,000  Level Anchorage Center
08:00AM 57.1500 -155.1667 293° West 450 518 31,000  Level Anchorage Center
08:01AM 57.2000 -155.3833 286° West 450 518 31,000  Level Anchorage Center
08:02AM 57.2333 -155.6000 292° West 450 518 31,000  Level Anchorage Center
08:03AM 57.2833 -155.8333 286° West 450 518 31,000  Level Anchorage Center
08:04AM 57.3167 -156.0500 293° West 450 518 31,000  Level Anchorage Center
08:05AM 57.3667 -156.2667 285° West 450 518 31,000  Level Anchorage Center
08:05AM 57.4000 -156.5000 293° West 450 518 31,000  Level Anchorage Center
08:07AM 57.4500 -156.7167 289° West 450 518 31,000  Level Anchorage Center
08:08AM 57.5333 -157.1667 286° West 450 518 31,000  Level Anchorage Center
08:11AM 57.6000 -157.6167 292° West 460 529 31,000  Level Anchorage Center
08:12AM 57.6500 -157.8500 286° West 450 518 31,000  Level Anchorage Center
08:14AM 57.7167 -158.3000 292° West 450 518 31,000  Level Anchorage Center
08:15AM 57.7667 -158.5333 286° West 450 518 31,000  Level Anchorage Center
08:16AM 57.8000 -158.7500 285° West 450 518 31,000  Level Anchorage Center
08:17AM 57.8333 -158.9833 289° West 450 518 31,000  Level Anchorage Center
08:18AM 57.8667 -159.1667 285° West 450 518 31,000  Level Anchorage Center
08:19AM 57.9000 -159.4000 290° West 450 518 31,000  Level Anchorage Center
08:20AM 57.9500 -159.6667 285° West 450 518 31,000  Level Anchorage Center
08:21AM 57.9833 -159.9000 285° West 450 518 31,000  Level Anchorage Center
08:22AM 58.0167 -160.1333 278° West 450 518 31,000  Level Anchorage Center
08:23AM 58.0333 -160.3667 284° West 460 529 31,000  Level Anchorage Center
08:24AM 58.0667 -160.6167 278° West 450 518 31,000  Level Anchorage Center
08:25AM 58.0833 -160.8500 283° West 450 518 31,000  Level Anchorage Center
08:26AM 58.1167 -161.1333 285° West 460 529 31,000  Level Anchorage Center
08:27AM 58.1500 -161.3667 277° West 460 529 31,000  Level Anchorage Center
08:28AM 58.1667 -161.6167 278° West 450 518 31,000  Level Anchorage Center
08:29AM 58.1833 -161.8500 285° West 460 529 31,000  Level Anchorage Center
08:30AM 58.2167 -162.0833 277° West 450 518 31,000  Level Anchorage Center
08:31AM 58.2333 -162.3333 280° West 460 529 31,000  Level Anchorage Center
08:32AM 58.2500 -162.5167 284° West 450 518 31,000  Level Anchorage Center
08:33AM 58.2833 -162.7667 285° West 450 518 31,000  Level Anchorage Center
08:34AM 58.3167 -163.0000 314° West 460 529 31,000  Level Anchorage Center
08:35AM 58.4000 -163.1667 311° West 450 518 31,000  Level Anchorage Center
08:36AM 58.4833 -163.3500 311° West 440 506 31,000 720 Level Anchorage Center
08:37AM 58.5667 -163.5333 311° West 450 518 32,500 1,440 Climbing Anchorage Center
08:38AM 58.6500 -163.7167 311° West 450 518 34,000 720 Climbing Anchorage Center
08:39AM 58.7333 -163.9000 278° West 440 506 34,000  Level Anchorage Center
08:40AM 58.7500 -164.1333 270° West 440 506 34,000  Level Anchorage Center
08:42AM 58.7500 -164.5667 278° West 450 518 34,000  Level Anchorage Center
08:43AM 58.7667 -164.8000 270° West 450 518 34,000  Level Anchorage Center
08:44AM 58.7667 -165.0500 270° West 450 518 34,000  Level Anchorage Center
08:45AM 58.7667 -165.3000 270° West 460 529 34,000  Level Anchorage Center
08:46AM 58.7667 -165.5500 278° West 460 529 34,000  Level Anchorage Center
08:47AM 58.7833 -165.7833 270° West 450 518 34,000  Level Anchorage Center
08:48AM 58.7833 -166.0333 270° West 450 518 34,000  Level Anchorage Center
08:49AM 58.7833 -166.2833 270° West 460 529 34,000  Level Anchorage Center
08:50AM 58.7833 -166.5333 270° West 450 518 34,000  Level Anchorage Center
08:51AM 58.7833 -166.7667 270° West 450 518 34,000  Level Anchorage Center
08:52AM 58.7833 -167.0167 270° West 440 506 34,000  Level Anchorage Center
08:53AM 58.7833 -167.2667 270° West 440 506 34,000  Level Anchorage Center
08:54AM 58.7833 -167.5167 270° West 460 529 34,000  Level Anchorage Center
08:55AM 58.7833 -167.7667 270° West 460 529 34,000  Level Anchorage Center
08:56AM 58.7833 -168.0167 263° West 460 529 34,000  Level Anchorage Center
08:57AM 58.7667 -168.2667 270° West 460 529 34,000  Level Anchorage Center
08:58AM 58.7667 -168.5167 270° West 460 529 34,000  Level Anchorage Center
08:59AM 58.7667 -168.7500 270° West 460 529 34,000  Level Anchorage Center
09:00AM 58.7667 -169.0167 270° West 460 529 34,000  Level Anchorage Center
09:01AM 58.7667 -169.2667 262° West 460 529 34,000  Level Anchorage Center
09:02AM 58.7500 -169.5000 270° West 460 529 34,000  Level Anchorage Center
09:03AM 58.7500 -169.7500 270° West 460 529 34,000  Level Anchorage Center
09:04AM 58.7500 -170.0000 263° West 470 541 34,000  Level Anchorage Center
09:05AM 58.7333 -170.2667 270° West 480 552 34,000  Level Anchorage Center
09:06AM 58.7333 -170.5000 263° West 460 529 34,000  Level Anchorage Center
09:07AM 58.7167 -170.7500 270° West 460 529 34,000  Level Anchorage Center
09:08AM 58.7167 -171.0000 263° West 470 541 34,000  Level Anchorage Center
09:09AM 58.7000 -171.2500 270° West 460 529 34,000  Level Anchorage Center
09:10AM 58.7000 -171.5000 263° West 460 529 34,000  Level Anchorage Center
09:11AM 58.6833 -171.7500 270° West 460 529 34,000  Level Anchorage Center
09:12AM 58.6833 -172.0000 262° West 460 529 34,000  Level Anchorage Center
09:13AM 58.6667 -172.2333 263° West 460 529 34,000  Level Anchorage Center
09:14AM 58.6500 -172.4833 270° West 460 529 34,000  Level Anchorage Center
09:15AM 58.6500 -172.7333 263° West 460 529 34,000  Level Anchorage Center
09:16AM 58.6333 -172.9833 262° West 460 529 34,000  Level Anchorage Center
09:17AM 58.6167 -173.2167 270° West 450 518 34,000  Level Anchorage Center
09:18AM 58.6167 -173.4667 263° West 460 529 34,000  Level Anchorage Center
09:19AM 58.6000 -173.7167 263° West 460 529 34,000  Level Anchorage Center
09:20AM 58.5833 -173.9667 262° West 460 529 34,000  Level Anchorage Center
09:21AM 58.5667 -174.2000 263° West 460 529 34,000  Level Anchorage Center
09:22AM 58.5500 -174.4500 270° West 450 518 34,000  Level Anchorage Center
09:23AM 58.5500 -174.7000 263° West 460 529 34,000  Level Anchorage Center
09:24AM 58.5333 -174.9500 262° West 460 529 34,000  Level Anchorage Center
09:25AM 58.5167 -175.1833 263° West 460 529 34,000  Level Anchorage Center
09:26AM 58.5000 -175.4333 263° West 460 529 34,000  Level Anchorage Center
09:27AM 58.4833 -175.6833 263° West 470 541 34,000  Level Anchorage Center
09:28AM 58.4667 -175.9333 256° West 470 541 34,000  Level Anchorage Center
09:29AM 58.4333 -176.1833 263° West 470 541 34,000  Level Anchorage Center
09:30AM 58.4167 -176.4333 263° West 470 541 34,000  Level Anchorage Center
09:31AM 58.4000 -176.6833 263° West 470 541 34,000  Level Anchorage Center
09:32AM 58.3833 -176.9333 261° West 480 552 34,000  Level Anchorage Center
09:33AM 58.3667 -177.1333 46° Northeast 470 541 34,000  Level Anchorage Center
09:34AM 58.3833 -177.1000 245° Southwest 488 562 34,000  Level Anchorage Center
09:40AM 57.9167 -178.9000 243° Southwest 493 567 34,000  Level Anchorage Center
09:57AM 56.8333 177.3500 240° Southwest 500 575 34,000  Level Anchorage Center
10:07AM 56.1167 175.1833 238° Southwest 507 583 34,000  Level Anchorage Center
10:11AM 55.8000 174.3000 237° Southwest 520 598 34,000  Level Anchorage Center
10:12AM 55.7333 174.1167 238° Southwest 510 587 34,000  Level Anchorage Center
10:13AM 55.6500 173.8833 237° Southwest 510 587 34,000  Level Anchorage Center
10:14AM 55.5833 173.7000 236° Southwest 510 587 34,000  Level Anchorage Center
10:15AM 55.5000 173.4833 238° Southwest 510 587 34,000  Level Anchorage Center
10:16AM 55.4167 173.2500 237° Southwest 520 598 34,000  Level Anchorage Center
10:17AM 55.3500 173.0667 236° Southwest 500 575 34,000  Level Anchorage Center
10:18AM 55.2667 172.8500 235° Southwest 500 575 34,000  Level Anchorage Center
10:19AM 55.2000 172.6833 236° Southwest 500 575 34,000 240 Level Anchorage Center
10:20AM 55.1167 172.4667 235° Southwest 490 564 34,600 840 Climbing Anchorage Center
10:21AM 55.0500 172.3000 236° Southwest 490 564 35,700 660 Climbing Anchorage Center
10:22AM 54.9667 172.0833 233° Southwest 490 564 36,000 120 Climbing Anchorage Center
10:23AM 54.8667 171.8500 235° Southwest 500 575 36,000  Level Anchorage Center
10:24AM 54.8000 171.6833 236° Southwest 510 587 36,000  Level Anchorage Center
10:25AM 54.7167 171.4667 232° Southwest 510 587 36,000  Level Anchorage Center
10:26AM 54.6333 171.2833 234° Southwest 510 587 36,000  Level Anchorage Center
10:27AM 54.5500 171.0833 233° Southwest 510 587 36,000  Level Anchorage Center
10:29AM 54.3833 170.7000 238° Southwest 500 575 36,000  Level Anchorage Center
10:30AM 54.3167 170.5167 232° Southwest 510 587 36,000  Level Anchorage Center
10:32AM 54.1500 170.1500 232° Southwest 490 564 36,000  Level Anchorage Center
10:34AM 53.9667 169.7500 236° Southwest 490 564 36,000  Level Anchorage Center
10:35AM 53.9000 169.5833 235° Southwest 500 575 36,000  Level Anchorage Center
10:36AM 53.8167 169.3833 230° Southwest 490 564 36,000  Level Anchorage Center
10:37AM 53.7333 169.2167 243° Southwest 520 598 36,000  Level Anchorage Center
10:38AM 53.6667 169.0000 239° Southwest 510 587 36,000  Level Anchorage Center
10:39AM 53.6000 168.8167 241° Southwest 500 575 36,000  Level Anchorage Center
10:40AM 53.5333 168.6167 243° Southwest 480 552 36,000  Level Anchorage Center
10:42AM 53.4167 168.2333 239° Southwest 473 544 36,000  Level Anchorage Center
11:00AM 52.1333 164.8333 237° Southwest 484 557 36,000  Level Anchorage Center
11:07AM 51.6500 163.6500 236° Southwest 488 562 36,000  Level Anchorage Center
11:25AM 50.2000 160.3833 236° Southwest 506 582 36,000  Level Anchorage Center
11:27AM 50.0833 160.1167 234° Southwest 511 588 36,000  Level Anchorage Center
11:35AM 49.3528 158.6153 232° Southwest 511 588 36,000  Level FlightAware Transoceanic
11:36AM 49.2665 158.4440 232° Southwest 511 588 36,000  Level FlightAware Transoceanic
11:37AM 49.1800 158.2734 232° Southwest 511 588 36,000  Level FlightAware Transoceanic
11:38AM 49.0932 158.1033 232° Southwest 511 588 36,000  Level FlightAware Transoceanic
11:39AM 49.0062 157.9338 232° Southwest 511 588 36,000  Level FlightAware Transoceanic
11:40AM 48.9189 157.7649 232° Southwest 511 588 36,000  Level FlightAware Transoceanic
11:41AM 48.8314 157.5966 232° Southwest 511 588 36,000  Level FlightAware Transoceanic
11:42AM 48.7436 157.4288 231° Southwest 511 588 36,000  Level FlightAware Transoceanic
11:43AM 48.6556 157.2617 231° Southwest 511 588 36,000  Level FlightAware Transoceanic
11:44AM 48.5673 157.0952 231° Southwest 511 588 36,000  Level FlightAware Transoceanic
11:45AM 48.4788 156.9292 231° Southwest 511 588 36,000  Level FlightAware Transoceanic
11:46AM 48.3901 156.7638 231° Southwest 511 588 36,000  Level FlightAware Transoceanic
11:47AM 48.3011 156.5990 231° Southwest 511 588 36,000  Level FlightAware Transoceanic
11:48AM 48.2119 156.4347 231° Southwest 511 588 36,000  Level FlightAware Transoceanic
11:49AM 48.1225 156.2711 231° Southwest 511 588 36,000  Level FlightAware Transoceanic
11:50AM 48.0328 156.1080 230° Southwest 511 588 36,000  Level FlightAware Transoceanic
11:51AM 47.9429 155.9454 230° Southwest 511 588 36,000  Level FlightAware Transoceanic
11:52AM 47.8528 155.7835 230° Southwest 511 588 36,000  Level FlightAware Transoceanic
11:53AM 47.7625 155.6221 230° Southwest 511 588 36,000  Level FlightAware Transoceanic
11:54AM 47.6719 155.4612 230° Southwest 511 588 36,000  Level FlightAware Transoceanic
11:55AM 47.5811 155.3009 230° Southwest 511 588 36,000  Level FlightAware Transoceanic
11:56AM 47.4901 155.1412 230° Southwest 511 588 36,000  Level FlightAware Transoceanic
11:57AM 47.3988 154.9820 230° Southwest 511 588 36,000  Level FlightAware Transoceanic
11:58AM 47.3073 154.8234 230° Southwest 511 588 36,000  Level FlightAware Transoceanic
11:59AM 47.2157 154.6653 229° Southwest 511 588 36,000  Level FlightAware Transoceanic
12:00PM 47.1238 154.5078 229° Southwest 511 588 36,000  Level FlightAware Transoceanic
12:01PM 47.0316 154.3508 229° Southwest 511 588 36,000  Level FlightAware Transoceanic
12:02PM 46.9393 154.1944 229° Southwest 511 588 36,000  Level FlightAware Transoceanic
12:03PM 46.8468 154.0385 229° Southwest 511 588 36,000  Level FlightAware Transoceanic
12:04PM 46.7540 153.8831 229° Southwest 511 588 36,000  Level FlightAware Transoceanic
12:05PM 46.6611 153.7282 229° Southwest 511 588 36,000  Level FlightAware Transoceanic
12:06PM 46.5679 153.5739 229° Southwest 511 588 36,000  Level FlightAware Transoceanic
12:07PM 46.4745 153.4202 229° Southwest 511 588 36,000  Level FlightAware Transoceanic
12:08PM 46.3809 153.2669 228° Southwest 511 588 36,000  Level FlightAware Transoceanic
12:09PM 46.2871 153.1142 241° Southwest 511 588 36,000  Level FlightAware Transoceanic
12:10PM 46.2272 152.9570 241° Southwest  Level Estimated
12:11PM 46.1671 152.8001 241° Southwest  Level Estimated
12:12PM 46.1068 152.6436 241° Southwest  Level Estimated
12:13PM 46.0462 152.4874 241° Southwest  Level Estimated
12:14PM 45.9855 152.3316 241° Southwest  Level Estimated
12:15PM 45.9245 152.1761 241° Southwest  Level Estimated
12:16PM 45.8633 152.0210 240° Southwest  Level Estimated
12:17PM 45.8019 151.8662 240° Southwest  Level Estimated
12:18PM 45.7403 151.7117 240° Southwest  Level Estimated
12:19PM 45.6785 151.5576 240° Southwest  Level Estimated
12:20PM 45.6165 151.4038 240° Southwest  Level Estimated
12:21PM 45.5543 151.2504 240° Southwest  Level Estimated
12:22PM 45.4919 151.0972 240° Southwest  Level Estimated
12:23PM 45.4293 150.9445 240° Southwest  Level Estimated
12:24PM 45.3664 150.7921 240° Southwest  Level Estimated
12:25PM 45.3034 150.6400 239° Southwest  Level Estimated
12:26PM 45.2402 150.4882 239° Southwest  Level Estimated
12:27PM 45.1767 150.3368 239° Southwest  Level Estimated
12:28PM 45.1131 150.1857 239° Southwest  Level Estimated
12:29PM 45.0493 150.0350 239° Southwest  Level Estimated
12:30PM 44.9852 149.8846 239° Southwest  Level Estimated
12:31PM 44.9210 149.7345 239° Southwest  Level Estimated
12:32PM 44.8566 149.5848 239° Southwest  Level Estimated
12:33PM 44.7920 149.4354 239° Southwest  Level Estimated
12:34PM 44.7272 149.2863 238° Southwest  Level Estimated
12:35PM 44.6622 149.1376 238° Southwest  Level Estimated
12:36PM 44.5970 148.9892 238° Southwest  Level Estimated
12:37PM 44.5316 148.8412 238° Southwest  Level Estimated
12:38PM 44.4660 148.6935 238° Southwest  Level Estimated
12:39PM 44.4002 148.5461 238° Southwest  Level Estimated
12:40PM 44.3343 148.3990 238° Southwest  Level Estimated
12:41PM 44.2681 148.2523 238° Southwest  Level Estimated
12:42PM 44.2018 148.1059 238° Southwest  Level Estimated
12:43PM 44.1353 147.9598 238° Southwest  Level Estimated
12:44PM 44.0685 147.8141 237° Southwest  Level Estimated
12:45PM 44.0017 147.6686 237° Southwest  Level Estimated
12:46PM 43.9346 147.5236 237° Southwest  Level Estimated
12:47PM 43.8673 147.3788 237° Southwest  Level Estimated
12:48PM 43.7999 147.2344 237° Southwest  Level Estimated
12:49PM 43.7323 147.0903 237° Southwest  Level Estimated
12:50PM 43.6645 146.9465 237° Southwest  Level Estimated
12:51PM 43.5965 146.8030 237° Southwest  Level Estimated
12:52PM 43.5283 146.6599 237° Southwest  Level Estimated
12:53PM 43.4600 146.5171 237° Southwest  Level Estimated
12:54PM 43.3914 146.3746 236° Southwest  Level Estimated
12:55PM 43.3228 146.2324 236° Southwest  Level Estimated
12:56PM 43.2539 146.0906 236° Southwest  Level Estimated
12:57PM 43.1848 145.9491 236° Southwest  Level Estimated
12:58PM 43.1156 145.8079 236° Southwest  Level Estimated
12:59PM 43.0462 145.6670 236° Southwest  Level Estimated
01:00PM 42.9767 145.5265 236° Southwest  Level Estimated
01:01PM 42.9069 145.3862 236° Southwest  Level Estimated
01:02PM 42.8370 145.2463 236° Southwest  Level Estimated
01:03PM 42.7669 145.1067 236° Southwest  Level Estimated
01:04PM 42.6967 144.9674 235° Southwest  Level Estimated
01:05PM 42.6263 144.8284 235° Southwest  Level Estimated
01:06PM 42.5557 144.6897 235° Southwest  Level Estimated
01:07PM 42.4849 144.5514 235° Southwest  Level Estimated
01:08PM 42.4140 144.4133 235° Southwest  Level Estimated
01:09PM 42.3429 144.2756 235° Southwest  Level Estimated
01:10PM 42.2717 144.1382 235° Southwest  Level Estimated
01:11PM 42.2003 144.0011 235° Southwest  Level Estimated
01:12PM 42.1287 143.8643 235° Southwest  Level Estimated
01:13PM 42.0570 143.7278 235° Southwest  Level Estimated
01:14PM 41.9851 143.5917 235° Southwest  Level Estimated
01:15PM 41.9130 143.4558 234° Southwest  Level Estimated
01:16PM 41.8408 143.3203 234° Southwest  Level Estimated
01:17PM 41.7684 143.1850 234° Southwest  Level Estimated
01:18PM 41.6959 143.0500 234° Southwest  Level Estimated
01:19PM 41.6232 142.9154 234° Southwest  Level Estimated
01:20PM 41.5504 142.7811 234° Southwest  Level Estimated
01:21PM 41.4773 142.6470 234° Southwest  Level Estimated
01:22PM 41.4042 142.5133 234° Southwest  Level Estimated
01:23PM 41.3309 142.3799 234° Southwest  Level Estimated
01:24PM 41.2574 142.2467 234° Southwest  Level Estimated
01:25PM 41.1838 142.1139 234° Southwest  Level Estimated
01:26PM 41.1100 141.9814 233° Southwest  Level Estimated
01:27PM 41.0361 141.8491 233° Southwest  Level Estimated
01:28PM 40.9620 141.7172 233° Southwest  Level Estimated
01:29PM 40.8878 141.5856 233° Southwest  Level Estimated
01:30PM 40.8134 141.4542 233° Southwest  Level Estimated
01:31PM 40.7389 141.3231 233° Southwest  Level Estimated
01:32PM 40.6642 141.1924 233° Southwest  Level Estimated
01:33PM 40.5894 141.0619 233° Southwest  Level Estimated
01:34PM 40.5145 140.9317 233° Southwest  Level Estimated
01:35PM 40.4393 140.8018 233° Southwest  Level Estimated
01:36PM 40.3641 140.6722 233° Southwest  Level Estimated
01:37PM 40.2887 140.5429 233° Southwest  Level Estimated
01:38PM 40.2131 140.4139 232° Southwest  Level Estimated
01:39PM 40.1375 140.2852 232° Southwest  Level Estimated
01:40PM 40.0616 140.1567 232° Southwest  Level Estimated
01:41PM 39.9856 140.0285 232° Southwest  Level Estimated
01:42PM 39.9095 139.9007 232° Southwest  Level Estimated
01:43PM 39.8333 139.7731 232° Southwest  Level Estimated
01:44PM 39.7569 139.6458 232° Southwest  Level Estimated
01:45PM 39.6804 139.5187 232° Southwest  Level Estimated
01:46PM 39.6037 139.3920 232° Southwest  Level Estimated
01:47PM 39.5269 139.2655 232° Southwest  Level Estimated
01:48PM 39.4500 139.1393 232° Southwest  Level Estimated
01:49PM 39.3729 139.0134 232° Southwest  Level Estimated
01:50PM 39.2957 138.8878 231° Southwest  Level Estimated
01:51PM 39.2183 138.7625 231° Southwest  Level Estimated
01:52PM 39.1408 138.6374 231° Southwest  Level Estimated
01:53PM 39.0632 138.5126 231° Southwest  Level Estimated
01:54PM 38.9855 138.3881 231° Southwest  Level Estimated
01:55PM 38.9076 138.2638 231° Southwest  Level Estimated
01:56PM 38.8296 138.1398 231° Southwest  Level Estimated
01:57PM 38.7514 138.0161 231° Southwest  Level Estimated
01:58PM 38.6732 137.8927 231° Southwest  Level Estimated
01:59PM 38.5948 137.7695 231° Southwest  Level Estimated
02:00PM 38.5162 137.6466 231° Southwest  Level Estimated
02:01PM 38.4376 137.5240 231° Southwest  Level Estimated
02:02PM 38.3588 137.4016 231° Southwest  Level Estimated
02:03PM 38.2799 137.2795 230° Southwest  Level Estimated
02:04PM 38.2008 137.1577 230° Southwest  Level Estimated
02:05PM 38.1217 137.0361 230° Southwest  Level Estimated
02:06PM 38.0424 136.9148 230° Southwest  Level Estimated
02:07PM 37.9630 136.7938 230° Southwest  Level Estimated
02:08PM 37.8834 136.6730 230° Southwest  Level Estimated
02:09PM 37.8038 136.5525 230° Southwest  Level Estimated
02:10PM 37.7240 136.4323 230° Southwest  Level Estimated
02:11PM 37.6441 136.3123 230° Southwest  Level Estimated
02:12PM 37.5641 136.1925 230° Southwest  Level Estimated
02:13PM 37.4839 136.0730 230° Southwest  Level Estimated
02:14PM 37.4036 135.9538 230° Southwest  Level Estimated
02:15PM 37.3232 135.8349 230° Southwest  Level Estimated
02:16PM 37.2427 135.7161 230° Southwest  Level Estimated
02:17PM 37.1621 135.5977 229° Southwest  Level Estimated
02:18PM 37.0814 135.4795 229° Southwest  Level Estimated
02:19PM 37.0005 135.3615 229° Southwest  Level Estimated
02:20PM 36.9195 135.2438 229° Southwest  Level Estimated
02:21PM 36.8385 135.1264 229° Southwest  Level Estimated
02:22PM 36.7573 135.0092 229° Southwest  Level Estimated
02:23PM 36.6759 134.8922 229° Southwest  Level Estimated
02:24PM 36.5945 134.7755 229° Southwest  Level Estimated
02:25PM 36.5130 134.6590 229° Southwest  Level Estimated
02:26PM 36.4313 134.5428 229° Southwest  Level Estimated
02:27PM 36.3495 134.4268 229° Southwest  Level Estimated
02:28PM 36.2676 134.3111 229° Southwest  Level Estimated
02:29PM 36.1856 134.1956 229° Southwest  Level Estimated
02:30PM 36.1035 134.0803 229° Southwest  Level Estimated
02:31PM 36.0213 133.9653 228° Southwest  Level Estimated
02:32PM 35.9390 133.8506 228° Southwest  Level Estimated
02:33PM 35.8565 133.7360 228° Southwest  Level Estimated
02:34PM 35.7740 133.6217 228° Southwest  Level Estimated
02:35PM 35.6913 133.5077 228° Southwest  Level Estimated
02:36PM 35.6086 133.3939 228° Southwest  Level Estimated
02:37PM 35.5257 133.2803 228° Southwest  Level Estimated
02:38PM 35.4427 133.1669 228° Southwest  Level Estimated
02:39PM 35.3597 133.0538 228° Southwest  Level Estimated
02:40PM 35.2765 132.9409 228° Southwest  Level Estimated
02:41PM 35.1932 132.8283 228° Southwest  Level Estimated
02:42PM 35.1098 132.7159 228° Southwest  Level Estimated
02:43PM 35.0263 132.6037 228° Southwest  Level Estimated
02:44PM 34.9427 132.4917 228° Southwest  Level Estimated
02:45PM 34.8590 132.3800 228° Southwest  Level Estimated
02:46PM 34.7752 132.2685 227° Southwest  Level Estimated
02:47PM 34.6913 132.1572 227° Southwest  Level Estimated
02:48PM 34.6073 132.0461 227° Southwest  Level Estimated
02:49PM 34.5232 131.9353 227° Southwest  Level Estimated
02:50PM 34.4390 131.8247 227° Southwest  Level Estimated
02:51PM 34.3547 131.7143 227° Southwest  Level Estimated
02:52PM 34.2703 131.6042 227° Southwest  Level Estimated
02:53PM 34.1858 131.4942 227° Southwest  Level Estimated
02:54PM 34.1012 131.3845 227° Southwest  Level Estimated
02:55PM 34.0165 131.2750 227° Southwest  Level Estimated
02:56PM 33.9317 131.1657 227° Southwest  Level Estimated
02:57PM 33.8468 131.0567 227° Southwest  Level Estimated
02:58PM 33.7618 130.9478 227° Southwest  Level Estimated
02:59PM 33.6767 130.8392 227° Southwest  Level Estimated
03:00PM 33.5916 130.7308 227° Southwest  Level Estimated
03:01PM 33.5063 130.6226 227° Southwest  Level Estimated
03:02PM 33.4209 130.5146 227° Southwest  Level Estimated
03:03PM 33.3355 130.4068 226° Southwest  Level Estimated
03:04PM 33.2499 130.2993 226° Southwest  Level Estimated
03:05PM 33.1643 130.1919 226° Southwest  Level Estimated
03:06PM 33.0785 130.0847 226° Southwest  Level Estimated
03:07PM 32.9927 129.9778 226° Southwest  Level Estimated
03:08PM 32.9068 129.8711 226° Southwest  Level Estimated
03:09PM 32.8208 129.7646 226° Southwest  Level Estimated
03:10PM 32.7347 129.6582 226° Southwest  Level Estimated
03:11PM 32.6485 129.5521 226° Southwest  Level Estimated
03:12PM 32.5622 129.4462 226° Southwest  Level Estimated
03:13PM 32.4758 129.3405 226° Southwest  Level Estimated
03:14PM 32.3894 129.2350 226° Southwest  Level Estimated
03:15PM 32.3028 129.1297 226° Southwest  Level Estimated
03:16PM 32.2162 129.0246 226° Southwest  Level Estimated
03:17PM 32.1295 128.9197 226° Southwest  Level Estimated
03:18PM 32.0427 128.8150 226° Southwest  Level Estimated
03:19PM 31.9558 128.7105 226° Southwest  Level Estimated
03:20PM 31.8688 128.6062 225° Southwest  Level Estimated
03:21PM 31.7818 128.5021 225° Southwest  Level Estimated
03:22PM 31.6946 128.3982 225° Southwest  Level Estimated
03:23PM 31.6074 128.2945 225° Southwest  Level Estimated
03:24PM 31.5201 128.1910 225° Southwest  Level Estimated
03:25PM 31.4327 128.0876 225° Southwest  Level Estimated
03:26PM 31.3452 127.9845 225° Southwest  Level Estimated
03:27PM 31.2577 127.8816 225° Southwest  Level Estimated
03:28PM 31.1700 127.7788 225° Southwest  Level Estimated
03:29PM 31.0823 127.6763 225° Southwest  Level Estimated
03:30PM 30.9945 127.5739 225° Southwest  Level Estimated
03:31PM 30.9066 127.4717 225° Southwest  Level Estimated
03:32PM 30.8187 127.3697 225° Southwest  Level Estimated
03:33PM 30.7306 127.2679 225° Southwest  Level Estimated
03:34PM 30.6425 127.1663 225° Southwest  Level Estimated
03:35PM 30.5543 127.0648 225° Southwest  Level Estimated
03:36PM 30.4660 126.9636 225° Southwest  Level Estimated
03:37PM 30.3777 126.8625 225° Southwest  Level Estimated
03:38PM 30.2892 126.7617 225° Southwest  Level Estimated
03:39PM 30.2007 126.6609 224° Southwest  Level Estimated
03:40PM 30.1121 126.5604 224° Southwest  Level Estimated
03:41PM 30.0235 126.4601 224° Southwest  Level Estimated
03:42PM 29.9347 126.3599 224° Southwest  Level Estimated
03:43PM 29.8459 126.2599 224° Southwest  Level Estimated
03:44PM 29.7570 126.1601 224° Southwest  Level Estimated
03:45PM 29.6680 126.0605 224° Southwest  Level Estimated
03:46PM 29.5790 125.9611 224° Southwest  Level Estimated
03:47PM 29.4899 125.8618 224° Southwest  Level Estimated
03:48PM 29.4007 125.7627 224° Southwest  Level Estimated
03:49PM 29.3114 125.6637 224° Southwest  Level Estimated
03:50PM 29.2221 125.5650 224° Southwest  Level Estimated
03:51PM 29.1327 125.4664 224° Southwest  Level Estimated
03:52PM 29.0432 125.3680 224° Southwest  Level Estimated
03:53PM 28.9536 125.2697 224° Southwest  Level Estimated
03:54PM 28.8640 125.1717 224° Southwest  Level Estimated
03:55PM 28.7743 125.0738 224° Southwest  Level Estimated
03:56PM 28.6846 124.9760 224° Southwest  Level Estimated
03:57PM 28.5947 124.8784 224° Southwest  Level Estimated
03:58PM 28.5048 124.7811 224° Southwest  Level Estimated
03:59PM 28.4149 124.6838 224° Southwest  Level Estimated
04:00PM 28.3248 124.5867 223° Southwest  Level Estimated
04:01PM 28.2347 124.4898 223° Southwest  Level Estimated
04:02PM 28.1445 124.3931 223° Southwest  Level Estimated
04:03PM 28.0543 124.2965 223° Southwest  Level Estimated
04:04PM 27.9640 124.2001 223° Southwest  Level Estimated
04:05PM 27.8736 124.1038 223° Southwest  Level Estimated
04:06PM 27.7831 124.0077 223° Southwest  Level Estimated
04:07PM 27.6926 123.9118 223° Southwest  Level Estimated
04:08PM 27.6021 123.8160 223° Southwest  Level Estimated
04:09PM 27.5114 123.7204 223° Southwest  Level Estimated
04:10PM 27.4207 123.6249 223° Southwest  Level Estimated
04:11PM 27.3299 123.5296 223° Southwest  Level Estimated
04:12PM 27.2391 123.4345 223° Southwest  Level Estimated
04:13PM 27.1482 123.3395 223° Southwest  Level Estimated
04:14PM 27.0572 123.2446 223° Southwest  Level Estimated
04:15PM 26.9662 123.1499 223° Southwest  Level Estimated
04:16PM 26.8751 123.0554 223° Southwest  Level Estimated
04:17PM 26.7839 122.9610 223° Southwest  Level Estimated
04:18PM 26.6927 122.8668 223° Southwest  Level Estimated
04:19PM 26.6014 122.7727 223° Southwest  Level Estimated
04:20PM 26.5100 122.6788 223° Southwest  Level Estimated
04:21PM 26.4186 122.5850 223° Southwest  Level Estimated
04:22PM 26.3272 122.4914 223° Southwest  Level Estimated
04:23PM 26.2356 122.3979 222° Southwest  Level Estimated
04:24PM 26.1441 122.3046 222° Southwest  Level Estimated
04:25PM 26.0524 122.2114 222° Southwest  Level Estimated
04:26PM 25.9607 122.1184 222° Southwest  Level Estimated
04:27PM 25.8689 122.0255 222° Southwest  Level Estimated
04:28PM 25.7771 121.9327 222° Southwest  Level Estimated
04:29PM 25.6852 121.8401 222° Southwest  Level Estimated
04:30PM 25.5933 121.7476 222° Southwest  Level Estimated
04:31PM 25.5013 121.6553 222° Southwest  Level Estimated
04:32PM 25.4092 121.5631 222° Southwest  Level Estimated
04:33PM 25.3171 121.4711 222° Southwest  Level Estimated
04:34PM 25.2249 121.3792 222° Southwest  Level Estimated
04:35PM 25.1327 121.2874 222° Southwest  Level Estimated
04:36PM 25.0404 121.1958 42° Northeast  Level Estimated
04:37PM 25.1327 121.2874 222° Southwest  Level Estimated
04:38PM 25.0404 121.1958 42° Northeast  Level Estimated
04:39PM 25.1327 121.2874 222° Southwest  Level Estimated
04:40PM 25.0404 121.1958 42° Northeast  Level Estimated
04:41PM 25.1327 121.2874 222° Southwest  Level Estimated
04:42PM 25.0404 121.1958 42° Northeast  Level Estimated
04:43PM 25.1327 121.2874 222° Southwest  Level Estimated
04:44PM 25.0404 121.1958 42° Northeast  Level Estimated
04:45PM 25.1327 121.2874 222° Southwest  Level Estimated
04:46PM 25.0404 121.1958 42° Northeast  Level Estimated
04:47PM 25.1327 121.2874 222° Southwest  Level Estimated
04:48PM 25.0404 121.1958 42° Northeast  Level Estimated
04:49PM 25.1327 121.2874 222° Southwest  Level Estimated
04:50PM 25.0404 121.1958 42° Northeast  Level Estimated
04:51PM 25.1327 121.2874 222° Southwest  Level Estimated
04:52PM 25.0404 121.1958 42° Northeast  Level Estimated
04:53PM 25.1327 121.2874 222° Southwest  Level Estimated
04:54PM 25.0404 121.1958 42° Northeast  Level Estimated
04:55PM 25.1327 121.2874 222° Southwest  Level Estimated
04:56PM 25.0404 121.1958 42° Northeast  Level Estimated
04:57PM 25.1327 121.2874 222° Southwest  Level Estimated
04:58PM 25.0404 121.1958 42° Northeast  Level Estimated
04:59PM 25.1327 121.2874 222° Southwest  Level Estimated
05:00PM 25.0404 121.1958 222° Southwest  Level Estimated